createdAt,value
2023-05-09T00:01:14.491Z,9.00
2023-05-09T00:03:43.146Z,9.07
2023-05-09T00:06:10.195Z,8.47
2023-05-09T00:08:38.204Z,8.70
2023-05-09T00:11:05.185Z,8.00
2023-05-09T00:13:33.289Z,7.97
2023-05-09T00:16:00.963Z,8.23
2023-05-09T00:18:28.642Z,7.93
2023-05-09T00:20:55.637Z,8.70
2023-05-09T00:23:22.501Z,8.40
2023-05-09T00:25:49.216Z,8.27
2023-05-09T00:28:16.001Z,7.87
2023-05-09T00:30:42.730Z,8.47
2023-05-09T00:33:09.490Z,8.97
2023-05-09T00:35:36.628Z,8.43
2023-05-09T00:38:06.338Z,8.50
2023-05-09T00:40:33.209Z,10.00
2023-05-09T00:43:00.522Z,7.57
2023-05-09T00:45:27.243Z,7.63
2023-05-09T00:47:54.356Z,8.20
2023-05-09T00:50:21.248Z,8.70
2023-05-09T00:52:48.161Z,8.83
2023-05-09T00:55:16.410Z,8.50
2023-05-09T00:57:45.984Z,8.33
2023-05-09T01:00:13.653Z,8.33
2023-05-09T01:02:51.185Z,8.53
2023-05-09T01:05:18.045Z,8.43
2023-05-09T01:08:10.720Z,8.17
2023-05-09T01:11:10.821Z,8.77
2023-05-09T01:14:06.903Z,8.30
2023-05-09T01:16:49.570Z,8.10
2023-05-09T01:19:34.318Z,7.60
2023-05-09T01:22:03.206Z,7.37
2023-05-09T01:24:48.674Z,7.80
2023-05-09T01:27:27.107Z,7.83
2023-05-09T01:30:04.873Z,7.80
2023-05-09T01:32:34.377Z,7.57
2023-05-09T01:35:04.698Z,8.00
2023-05-09T01:37:39.822Z,7.73
2023-05-09T01:40:20.561Z,8.03
2023-05-09T01:42:52.917Z,7.87
2023-05-09T01:45:20.825Z,7.30
2023-05-09T01:47:49.409Z,7.23
2023-05-09T01:50:18.331Z,6.33
2023-05-09T01:52:48.317Z,7.40
2023-05-09T01:55:17.054Z,6.73
2023-05-09T01:57:45.573Z,6.67
2023-05-09T02:00:14.559Z,6.40
2023-05-09T02:02:42.068Z,7.03
2023-05-09T02:05:10.672Z,7.17
2023-05-09T02:07:38.943Z,6.23
2023-05-09T02:10:08.915Z,6.77
2023-05-09T02:12:35.766Z,6.60
2023-05-09T02:15:02.695Z,6.00
2023-05-09T02:17:31.029Z,6.63
2023-05-09T02:19:58.162Z,6.90
2023-05-09T02:22:28.036Z,6.00
2023-05-09T02:24:54.928Z,6.13
2023-05-09T02:27:22.212Z,6.00
2023-05-09T02:29:57.875Z,6.60
2023-05-09T02:32:29.220Z,6.83
2023-05-09T02:34:57.707Z,6.30
2023-05-09T02:37:25.128Z,6.47
2023-05-09T02:39:52.245Z,6.67
2023-05-09T02:42:25.506Z,6.67
2023-05-09T02:44:53.014Z,6.80
2023-05-09T02:47:19.898Z,7.97
2023-05-09T02:49:46.693Z,6.80
2023-05-09T02:52:14.102Z,7.27
2023-05-09T02:54:41.069Z,6.93
2023-05-09T02:57:07.884Z,7.30
2023-05-09T02:59:35.033Z,6.83
2023-05-09T03:02:01.938Z,6.97
2023-05-09T03:04:28.800Z,6.83
2023-05-09T03:06:55.535Z,6.77
2023-05-09T03:09:22.246Z,7.30
2023-05-09T03:11:50.350Z,7.53
2023-05-09T03:14:17.106Z,7.07
2023-05-09T03:16:43.957Z,7.10
2023-05-09T03:19:10.761Z,6.97
2023-05-09T03:21:37.593Z,7.10
2023-05-09T03:24:04.993Z,6.70
2023-05-09T03:26:31.725Z,6.50
2023-05-09T03:28:59.307Z,6.83
2023-05-09T03:31:26.087Z,6.40
2023-05-09T03:33:53.069Z,6.60
2023-05-09T03:36:20.348Z,5.53
2023-05-09T03:38:47.035Z,6.80
2023-05-09T03:41:18.828Z,6.77
2023-05-09T03:43:45.902Z,6.23
2023-05-09T03:46:12.669Z,5.93
2023-05-09T03:48:39.525Z,6.03
2023-05-09T03:51:06.431Z,5.83
2023-05-09T03:53:33.357Z,5.50
2023-05-09T03:56:02.517Z,6.40
2023-05-09T03:58:29.349Z,6.17
2023-05-09T04:00:56.254Z,5.83
2023-05-09T04:03:24.946Z,6.30
2023-05-09T04:05:51.884Z,6.27
2023-05-09T04:08:18.622Z,6.63
2023-05-09T04:10:45.405Z,5.43
2023-05-09T04:13:12.212Z,6.03
2023-05-09T04:15:41.794Z,5.90
2023-05-09T04:18:08.728Z,5.73
2023-05-09T04:20:36.180Z,5.50
2023-05-09T04:23:03.382Z,6.03
2023-05-09T04:25:31.758Z,5.83
2023-05-09T04:27:58.539Z,6.00
2023-05-09T04:30:27.590Z,5.93
2023-05-09T04:32:55.702Z,5.70
2023-05-09T04:35:22.925Z,5.47
2023-05-09T04:37:50.107Z,5.83
2023-05-09T04:40:17.103Z,5.73
2023-05-09T04:42:43.839Z,5.67
2023-05-09T04:45:11.979Z,5.17
2023-05-09T04:47:38.906Z,5.53
2023-05-09T04:50:06.200Z,9.97
2023-05-09T04:52:32.924Z,5.83
2023-05-09T04:54:59.739Z,5.80
2023-05-09T04:57:26.434Z,5.77
2023-05-09T04:59:53.325Z,6.03
2023-05-09T05:02:21.425Z,5.30
2023-05-09T05:04:48.280Z,6.43
2023-05-09T05:07:15.106Z,6.30
2023-05-09T05:09:41.969Z,6.00
2023-05-09T05:12:09.810Z,7.10
2023-05-09T05:14:36.816Z,5.70
2023-05-09T05:17:03.676Z,5.93
2023-05-09T05:19:30.481Z,6.40
2023-05-09T05:21:57.178Z,6.20
2023-05-09T05:24:23.884Z,5.97
2023-05-09T05:26:50.707Z,6.93
2023-05-09T05:29:18.118Z,6.87
2023-05-09T05:31:45.164Z,5.57
2023-05-09T05:34:11.965Z,5.97
2023-05-09T05:36:38.685Z,5.60
2023-05-09T05:39:05.398Z,4.90
2023-05-09T05:41:32.223Z,5.33
2023-05-09T05:43:58.993Z,5.43
2023-05-09T05:46:25.755Z,5.70
2023-05-09T05:48:54.745Z,5.83
2023-05-09T05:51:21.924Z,5.97
2023-05-09T05:53:48.716Z,5.47
2023-05-09T05:56:16.014Z,5.30
2023-05-09T05:58:42.737Z,6.00
2023-05-09T06:01:09.450Z,6.27
2023-05-09T06:03:36.350Z,5.57
2023-05-09T06:06:03.345Z,4.83
2023-05-09T06:08:30.188Z,4.30
2023-05-09T06:10:56.938Z,4.63
2023-05-09T06:13:23.919Z,5.20
2023-05-09T06:15:50.825Z,5.40
2023-05-09T06:18:17.567Z,5.30
2023-05-09T06:20:44.290Z,5.60
2023-05-09T06:23:11.471Z,5.20
2023-05-09T06:25:38.171Z,5.33
2023-05-09T06:28:05.404Z,4.97
2023-05-09T06:30:32.135Z,4.60
2023-05-09T06:32:58.938Z,4.40
2023-05-09T06:35:25.902Z,4.60
2023-05-09T06:37:52.649Z,5.60
2023-05-09T06:40:19.562Z,4.93
2023-05-09T06:42:46.702Z,4.70
2023-05-09T06:45:13.741Z,4.97
2023-05-09T06:47:40.728Z,5.33
2023-05-09T06:50:08.365Z,5.60
2023-05-09T06:52:35.215Z,5.57
2023-05-09T06:55:02.035Z,5.33
2023-05-09T06:57:29.031Z,5.07
2023-05-09T06:59:55.840Z,4.90
2023-05-09T07:02:22.579Z,4.40
2023-05-09T07:04:49.345Z,4.80
2023-05-09T07:07:16.612Z,5.13
2023-05-09T07:09:43.413Z,5.27
2023-05-09T07:12:10.451Z,4.40
2023-05-09T07:14:37.166Z,4.43
2023-05-09T07:17:21.112Z,4.83
2023-05-09T07:19:48.492Z,4.23
2023-05-09T07:22:15.340Z,5.13
2023-05-09T07:24:42.166Z,4.63
2023-05-09T07:27:09.110Z,5.33
2023-05-09T07:29:36.016Z,7.13
2023-05-09T07:32:02.924Z,4.83
2023-05-09T07:34:29.857Z,5.43
2023-05-09T07:36:56.555Z,4.73
2023-05-09T07:39:23.270Z,4.67
2023-05-09T07:41:50.075Z,4.80
2023-05-09T07:44:16.771Z,4.63
2023-05-09T07:46:43.652Z,4.77
2023-05-09T07:49:10.414Z,4.27
2023-05-09T07:51:37.176Z,4.37
2023-05-09T07:54:04.099Z,4.50
2023-05-09T07:56:30.822Z,5.33
2023-05-09T07:58:57.553Z,4.77
2023-05-09T08:01:24.324Z,4.33
2023-05-09T08:03:51.113Z,4.50
2023-05-09T08:06:18.009Z,4.33
2023-05-09T08:08:44.774Z,5.10
2023-05-09T08:11:11.878Z,4.83
2023-05-09T08:13:38.733Z,4.53
2023-05-09T08:16:06.032Z,4.57
2023-05-09T08:18:32.836Z,5.13
2023-05-09T08:20:59.995Z,5.00
2023-05-09T08:23:27.150Z,4.30
2023-05-09T08:25:54.740Z,4.70
2023-05-09T08:28:24.483Z,5.20
2023-05-09T08:30:52.260Z,4.60
2023-05-09T08:33:21.507Z,3.77
2023-05-09T08:35:57.609Z,4.77
2023-05-09T08:38:27.269Z,4.43
2023-05-09T08:40:59.716Z,5.43
2023-05-09T08:43:28.850Z,4.80
2023-05-09T08:46:00.582Z,5.13
2023-05-09T08:48:28.692Z,5.73
2023-05-09T08:50:57.148Z,5.00
2023-05-09T08:53:26.285Z,5.30
2023-05-09T08:55:58.581Z,4.23
2023-05-09T08:58:25.818Z,4.90
2023-05-09T09:00:53.891Z,4.00
2023-05-09T09:03:20.791Z,5.03
2023-05-09T09:05:48.916Z,5.37
2023-05-09T09:08:17.112Z,4.03
2023-05-09T09:10:47.682Z,4.80
2023-05-09T09:13:17.027Z,4.57
2023-05-09T09:15:45.700Z,4.57
2023-05-09T09:18:18.406Z,4.63
2023-05-09T09:21:06.154Z,4.77
2023-05-09T09:23:33.672Z,4.90
2023-05-09T09:26:02.584Z,3.93
2023-05-09T09:28:29.761Z,4.63
2023-05-09T09:30:56.832Z,4.63
2023-05-09T09:33:25.254Z,5.20
2023-05-09T09:35:54.019Z,4.73
2023-05-09T09:38:22.706Z,4.40
2023-05-09T09:40:59.403Z,4.60
2023-05-09T09:43:33.168Z,4.53
2023-05-09T09:46:04.530Z,4.90
2023-05-09T09:48:34.070Z,5.00
2023-05-09T09:51:11.582Z,4.53
2023-05-09T09:53:44.978Z,4.67
2023-05-09T09:56:12.235Z,4.00
2023-05-09T09:58:39.516Z,4.27
2023-05-09T10:01:11.580Z,3.80
2023-05-09T10:03:43.667Z,4.60
2023-05-09T10:06:16.199Z,4.43
2023-05-09T10:08:47.402Z,3.97
2023-05-09T10:11:15.648Z,5.00
2023-05-09T10:13:43.951Z,4.90
2023-05-09T10:16:11.913Z,5.07
2023-05-09T10:18:42.718Z,5.23
2023-05-09T10:21:12.510Z,4.17
2023-05-09T10:23:43.212Z,4.60
2023-05-09T10:26:32.532Z,4.50
2023-05-09T10:29:04.961Z,4.80
2023-05-09T10:31:36.210Z,4.53
2023-05-09T10:34:10.065Z,4.40
2023-05-09T10:36:37.751Z,4.40
2023-05-09T10:39:08.171Z,4.00
2023-05-09T10:41:37.357Z,5.03
2023-05-09T10:44:04.176Z,4.97
2023-05-09T10:46:31.551Z,3.83
2023-05-09T10:48:59.047Z,4.37
2023-05-09T10:51:26.396Z,4.40
2023-05-09T10:53:54.126Z,4.40
2023-05-09T10:56:35.973Z,4.17
2023-05-09T10:59:03.042Z,4.80
2023-05-09T11:01:39.320Z,4.77
2023-05-09T11:04:16.889Z,5.27
2023-05-09T11:06:49.252Z,4.30
2023-05-09T11:09:33.705Z,4.33
2023-05-09T11:12:02.468Z,4.40
2023-05-09T11:14:49.696Z,4.60
2023-05-09T11:17:22.321Z,4.43
2023-05-09T11:19:51.938Z,4.43
2023-05-09T11:22:22.065Z,3.50
2023-05-09T11:24:56.451Z,4.30
2023-05-09T11:27:25.318Z,4.00
2023-05-09T11:29:57.459Z,3.93
2023-05-09T11:32:44.105Z,3.47
2023-05-09T11:35:19.749Z,3.30
2023-05-09T11:38:00.357Z,3.23
2023-05-09T11:40:28.428Z,4.23
2023-05-09T11:42:58.451Z,3.97
2023-05-09T11:45:29.713Z,4.97
2023-05-09T11:48:00.767Z,3.87
2023-05-09T11:50:27.609Z,3.30
2023-05-09T11:52:54.508Z,3.03
2023-05-09T11:55:23.991Z,3.30
2023-05-09T11:57:54.812Z,3.17
2023-05-09T12:00:26.707Z,3.60
2023-05-09T12:02:54.068Z,3.80
2023-05-09T12:05:23.074Z,3.90
2023-05-09T12:07:50.318Z,4.03
2023-05-09T12:10:20.811Z,3.87
2023-05-09T12:12:52.448Z,2.97
2023-05-09T12:15:20.049Z,3.50
2023-05-09T12:17:50.466Z,3.00
2023-05-09T12:20:18.038Z,2.60
2023-05-09T12:22:44.934Z,3.20
2023-05-09T12:25:12.279Z,2.53
2023-05-09T12:27:40.932Z,2.67
2023-05-09T12:30:11.106Z,3.23
2023-05-09T12:32:40.569Z,2.83
2023-05-09T12:35:09.735Z,3.37
2023-05-09T12:37:36.644Z,3.00
2023-05-09T12:40:15.675Z,2.80
2023-05-09T12:42:46.407Z,3.83
2023-05-09T12:45:14.160Z,2.73
2023-05-09T12:47:45.722Z,3.20
2023-05-09T12:50:13.525Z,3.20
2023-05-09T12:52:58.599Z,3.40
2023-05-09T12:55:29.315Z,3.20
2023-05-09T12:58:02.063Z,2.70
2023-05-09T13:00:41.489Z,2.80
2023-05-09T13:03:20.813Z,2.80
2023-05-09T13:05:58.458Z,3.08
2023-05-09T13:08:25.460Z,3.27
2023-05-09T13:10:57.805Z,3.20
2023-05-09T13:13:31.813Z,2.88
2023-05-09T13:15:58.560Z,2.80
2023-05-09T13:18:25.331Z,2.97
2023-05-09T13:20:53.012Z,2.97
2023-05-09T13:23:19.752Z,2.97
2023-05-09T13:25:46.500Z,3.53
2023-05-09T13:28:13.220Z,3.33
2023-05-09T13:30:40.091Z,3.10
2023-05-09T13:33:23.917Z,2.70
2023-05-09T13:35:51.834Z,2.95
2023-05-09T13:38:18.690Z,3.45
2023-05-09T13:40:45.429Z,2.95
2023-05-09T13:43:12.491Z,3.53
2023-05-09T13:45:39.369Z,3.53
2023-05-09T13:48:06.451Z,3.17
2023-05-09T13:50:33.232Z,3.35
2023-05-09T13:52:59.982Z,3.13
2023-05-09T13:55:27.863Z,3.03
2023-05-09T13:57:57.479Z,3.03
2023-05-09T14:00:26.918Z,3.70
2023-05-09T14:02:53.902Z,3.40
2023-05-09T14:05:20.845Z,3.35
2023-05-09T14:07:47.765Z,2.45
2023-05-09T14:10:14.579Z,2.90
2023-05-09T14:12:44.592Z,2.95
2023-05-09T14:15:11.518Z,3.58
2023-05-09T14:17:38.689Z,3.22
2023-05-09T14:20:06.841Z,2.40
2023-05-09T14:22:33.632Z,3.20
2023-05-09T14:25:00.643Z,2.88
2023-05-09T14:27:27.735Z,3.47
2023-05-09T14:29:54.662Z,2.95
2023-05-09T14:32:23.193Z,3.28
2023-05-09T14:34:51.613Z,2.80
2023-05-09T14:37:18.732Z,2.92
2023-05-09T14:39:47.840Z,3.13
2023-05-09T14:42:16.706Z,2.97
2023-05-09T14:44:44.888Z,3.30
2023-05-09T14:47:12.252Z,3.22
2023-05-09T14:49:40.220Z,3.03
2023-05-09T14:52:07.070Z,3.38
2023-05-09T14:54:35.020Z,3.10
2023-05-09T14:57:04.747Z,3.10
2023-05-09T14:59:31.534Z,3.20
2023-05-09T15:01:58.302Z,3.38
2023-05-09T15:04:28.436Z,2.72
2023-05-09T15:06:55.266Z,2.80
2023-05-09T15:09:22.721Z,3.50
2023-05-09T15:11:49.551Z,3.28
2023-05-09T15:14:17.086Z,2.92
2023-05-09T15:16:44.328Z,3.38
2023-05-09T15:19:11.403Z,3.10
2023-05-09T15:21:38.244Z,3.25
2023-05-09T15:24:05.445Z,3.30
2023-05-09T15:26:32.640Z,2.92
2023-05-09T15:28:59.545Z,3.13
2023-05-09T15:31:26.753Z,3.55
2023-05-09T15:33:53.648Z,3.40
2023-05-09T15:36:20.393Z,3.38
2023-05-09T15:38:49.776Z,2.92
2023-05-09T15:41:17.171Z,3.60
2023-05-09T15:43:44.022Z,3.72
2023-05-09T15:46:11.005Z,3.65
2023-05-09T15:48:37.915Z,2.92
2023-05-09T15:51:04.965Z,3.60
2023-05-09T15:53:31.830Z,3.50
2023-05-09T15:55:58.541Z,3.60
2023-05-09T15:58:25.356Z,3.40
2023-05-09T16:00:52.247Z,3.20
2023-05-09T16:03:19.636Z,3.45
2023-05-09T16:05:46.735Z,3.10
2023-05-09T16:08:13.808Z,3.33
2023-05-09T16:10:41.012Z,3.10
2023-05-09T16:13:07.906Z,3.10
2023-05-09T16:15:35.321Z,3.15
2023-05-09T16:18:02.328Z,3.08
2023-05-09T16:20:29.153Z,3.35
2023-05-09T16:22:55.898Z,3.97
2023-05-09T16:25:22.926Z,3.05
2023-05-09T16:27:49.682Z,3.40
2023-05-09T16:30:16.888Z,3.38
2023-05-09T16:32:43.982Z,3.53
2023-05-09T16:35:11.019Z,3.08
2023-05-09T16:37:37.840Z,4.10
2023-05-09T16:40:05.134Z,3.40
2023-05-09T16:42:31.884Z,4.13
2023-05-09T16:44:58.645Z,3.78
2023-05-09T16:47:25.477Z,3.35
2023-05-09T16:49:52.224Z,3.17
2023-05-09T16:52:19.024Z,3.63
2023-05-09T16:54:45.805Z,4.15
2023-05-09T16:57:13.352Z,3.65
2023-05-09T16:59:45.078Z,3.30
2023-05-09T17:02:11.996Z,3.70
2023-05-09T17:04:38.989Z,3.90
2023-05-09T17:07:05.801Z,3.88
2023-05-09T17:09:32.763Z,3.33
2023-05-09T17:12:00.771Z,4.25
2023-05-09T17:14:27.499Z,3.97
2023-05-09T17:16:54.477Z,4.47
2023-05-09T17:19:23.566Z,3.88
2023-05-09T17:21:50.525Z,3.95
2023-05-09T17:24:17.492Z,4.20
2023-05-09T17:26:44.278Z,3.92
2023-05-09T17:29:11.012Z,3.65
2023-05-09T17:31:37.835Z,4.15
2023-05-09T17:34:05.781Z,4.13
2023-05-09T17:36:34.019Z,4.07
2023-05-09T17:39:01.028Z,4.00
2023-05-09T17:41:27.945Z,3.75
2023-05-09T17:43:57.536Z,3.70
2023-05-09T17:46:24.994Z,4.07
2023-05-09T17:48:52.069Z,3.60
2023-05-09T17:51:19.002Z,3.70
2023-05-09T17:53:46.937Z,4.45
2023-05-09T17:56:14.007Z,3.33
2023-05-09T17:58:40.781Z,3.03
2023-05-09T18:01:07.795Z,3.47
2023-05-09T18:03:34.660Z,4.10
2023-05-09T18:06:02.010Z,3.60
2023-05-09T18:08:29.786Z,3.47
2023-05-09T18:10:57.584Z,3.80
2023-05-09T18:13:24.513Z,3.40
2023-05-09T18:15:51.675Z,3.47
2023-05-09T18:18:18.728Z,3.27
2023-05-09T18:20:47.406Z,3.63
2023-05-09T18:23:15.277Z,3.42
2023-05-09T18:25:42.188Z,3.60
2023-05-09T18:28:09.635Z,3.40
2023-05-09T18:30:36.419Z,3.53
2023-05-09T18:33:03.314Z,3.20
2023-05-09T18:35:30.142Z,3.23
2023-05-09T18:37:56.983Z,3.00
2023-05-09T18:40:23.818Z,3.33
2023-05-09T18:42:50.539Z,3.40
2023-05-09T18:45:17.279Z,3.40
2023-05-09T18:47:44.146Z,2.90
2023-05-09T18:50:11.455Z,2.87
2023-05-09T18:52:38.690Z,3.20
2023-05-09T18:55:06.217Z,3.20
2023-05-09T18:57:34.034Z,2.77
2023-05-09T19:00:00.910Z,3.07
2023-05-09T19:02:27.950Z,3.10
2023-05-09T19:04:54.666Z,2.93
2023-05-09T19:07:22.172Z,3.00
2023-05-09T19:09:49.636Z,2.53
2023-05-09T19:12:17.818Z,3.10
2023-05-09T19:14:44.576Z,3.03
2023-05-09T19:17:11.404Z,2.90
2023-05-09T19:19:38.164Z,2.83
2023-05-09T19:22:05.097Z,2.90
2023-05-09T19:24:33.000Z,2.77
2023-05-09T19:26:59.807Z,2.77
2023-05-09T19:29:26.635Z,2.90
2023-05-09T19:31:53.303Z,2.60
2023-05-09T19:34:20.457Z,2.70
2023-05-09T19:36:47.158Z,2.87
2023-05-09T19:39:13.905Z,3.10
2023-05-09T19:41:41.218Z,3.27
2023-05-09T19:44:08.003Z,2.80
2023-05-09T19:46:35.493Z,3.20
2023-05-09T19:49:02.454Z,2.60
2023-05-09T19:51:29.775Z,3.10
2023-05-09T19:53:56.649Z,3.30
2023-05-09T19:56:23.428Z,3.27
2023-05-09T19:58:50.552Z,3.10
2023-05-09T20:01:19.296Z,3.80
2023-05-09T20:03:52.415Z,3.30
2023-05-09T20:06:19.455Z,3.10
2023-05-09T20:08:47.170Z,3.50
2023-05-09T20:11:14.846Z,3.13
2023-05-09T20:13:42.292Z,3.37
2023-05-09T20:16:09.348Z,3.40
2023-05-09T20:18:36.205Z,3.20
2023-05-09T20:21:03.523Z,3.23
2023-05-09T20:23:31.292Z,3.40
2023-05-09T20:25:58.233Z,3.20
2023-05-09T20:28:25.414Z,3.40
2023-05-09T20:30:52.171Z,3.80
2023-05-09T20:33:19.350Z,3.50
2023-05-09T20:35:46.181Z,3.63
2023-05-09T20:38:12.934Z,3.70
2023-05-09T20:40:40.566Z,3.60
2023-05-09T20:43:07.331Z,4.10
2023-05-09T20:45:34.603Z,3.73
2023-05-09T20:48:02.175Z,3.33
2023-05-09T20:50:29.028Z,3.60
2023-05-09T20:52:55.777Z,3.90
2023-05-09T20:55:22.729Z,3.67
2023-05-09T20:57:49.590Z,3.80
2023-05-09T21:00:16.634Z,3.70
2023-05-09T21:02:43.652Z,4.00
2023-05-09T21:05:10.553Z,3.60
2023-05-09T21:07:37.625Z,3.60
2023-05-09T21:10:04.723Z,4.10
2023-05-09T21:12:32.967Z,3.93
2023-05-09T21:14:59.840Z,4.33
2023-05-09T21:17:26.755Z,3.60
2023-05-09T21:19:53.557Z,3.60
2023-05-09T21:22:20.400Z,3.83
2023-05-09T21:24:47.553Z,4.20
2023-05-09T21:27:14.525Z,3.50
2023-05-09T21:29:41.252Z,3.80
2023-05-09T21:32:08.025Z,3.37
2023-05-09T21:34:34.866Z,3.60
2023-05-09T21:37:01.625Z,3.50
2023-05-09T21:39:28.456Z,3.60
2023-05-09T21:41:55.153Z,4.10
2023-05-09T21:44:21.894Z,4.57
2023-05-09T21:46:48.722Z,3.80
2023-05-09T21:49:17.163Z,4.00
2023-05-09T21:51:43.985Z,4.27
2023-05-09T21:54:11.204Z,4.10
2023-05-09T21:56:38.072Z,4.23
2023-05-09T21:59:05.021Z,3.53
2023-05-09T22:01:31.870Z,4.30
2023-05-09T22:03:58.943Z,3.90
2023-05-09T22:06:25.920Z,4.33
2023-05-09T22:08:52.720Z,4.00
2023-05-09T22:11:19.614Z,4.03
2023-05-09T22:13:46.381Z,4.23
2023-05-09T22:16:13.788Z,3.50
2023-05-09T22:18:40.622Z,4.17
2023-05-09T22:21:07.503Z,4.07
2023-05-09T22:23:36.060Z,4.47
2023-05-09T22:26:02.885Z,3.83
2023-05-09T22:28:29.644Z,4.43
2023-05-09T22:30:56.486Z,4.27
2023-05-09T22:33:23.233Z,4.17
2023-05-09T22:35:50.036Z,4.13
2023-05-09T22:38:16.740Z,4.80
2023-05-09T22:40:44.002Z,4.87
2023-05-09T22:43:11.030Z,5.37
2023-05-09T22:45:37.978Z,6.80
2023-05-09T22:48:05.212Z,6.50
2023-05-09T22:50:32.127Z,7.23
2023-05-09T22:52:58.928Z,8.00
2023-05-09T22:55:25.710Z,8.33
2023-05-09T22:57:52.418Z,7.80
2023-05-09T23:00:19.334Z,8.03
2023-05-09T23:02:46.393Z,8.83
2023-05-09T23:05:13.588Z,9.03
2023-05-09T23:07:40.379Z,8.57
2023-05-09T23:10:07.656Z,9.00
2023-05-09T23:12:34.863Z,9.50
2023-05-09T23:15:01.721Z,8.50
2023-05-09T23:17:28.447Z,8.87
2023-05-09T23:19:55.361Z,8.97
2023-05-09T23:22:22.084Z,8.90
2023-05-09T23:24:48.801Z,9.50
2023-05-09T23:27:16.085Z,10.60
2023-05-09T23:29:43.672Z,9.40
2023-05-09T23:32:10.511Z,9.57
2023-05-09T23:34:37.289Z,10.37
2023-05-09T23:37:04.542Z,9.43
2023-05-09T23:39:31.762Z,9.80
2023-05-09T23:41:58.498Z,9.53
2023-05-09T23:44:25.795Z,8.37
2023-05-09T23:46:52.840Z,9.77
2023-05-09T23:49:19.655Z,8.77
2023-05-09T23:51:46.431Z,8.87
2023-05-09T23:54:13.202Z,9.10
2023-05-09T23:56:40.100Z,8.17
2023-05-09T23:59:06.817Z,8.57
